Huvudsida
METAR-TAF:

METAR-TAF

Flygplatser :

Sharm el-Sheikhs internationella flygplats

Sharm el-Sheikh, Egypten

latitud: 27-58N, longitud: 034-23E, höjd: 50 m

Aktuellt väderrapport

Denna rapport gjordes för 1 timme och 44 minuter sedan, klockan 06:00 UTC
Vind 2 kt varierande vindriktning
Temperatur 14°C
Fuktighet 88%
Tryck 1017 hPa
Sikt 10 km eller mer
Få moln på en höjd av 2500 ft

METAR: HESH 220600Z VRB02KT 9999 FEW025 14/12 Q1017 NOSIG

Tid: 09:44 (07:44 UTC)

Väderprognos

Denna rapport gjordes för 2 timmar och 44 minuter sedan, klockan 05:00 UTC
Prognos gäller från 22 kl. 06 UTC till 23 kl. 12 UTC
Vind 14 kt från nord/nordost
Sikt 10 km eller mer
Inga moln under 1 500 m eller inga cumulonimbus

TAF: HESH 220500Z 2206/2312 02014KT CAVOK

Aktuella väderrapporter och prognoser från 4000 flygplatser (METAR- och TAF-rapporter).

De tillgängliga stationerna syns som gula och röda prickar på kartan.

För musen över prickarna för att se namnen på stationerna.

Klicka sedan för att få väderrapporter och prognoser.

För att ändra kartan: Klicka på de gröna knapparna med ett svart kors på för att zooma in; den gröna knappen med ett streck på för att zooma ut; eller på de gröna pilarna för angränsande kartor.


METAR-TAF: